sensor_id;sensor_type;location;lat;lon;timestamp;P1;durP1;ratioP1;P2;durP2;ratioP2
75427;SDS011;64008;55.612;37.698;2023-07-08T00:02:10;7.38;;;3.75;;
75427;SDS011;64008;55.612;37.698;2023-07-08T00:04:37;7.80;;;4.43;;
75427;SDS011;64008;55.612;37.698;2023-07-08T00:07:03;6.63;;;3.95;;
75427;SDS011;64008;55.612;37.698;2023-07-08T00:09:29;6.93;;;4.05;;
75427;SDS011;64008;55.612;37.698;2023-07-08T00:11:55;6.40;;;3.55;;
75427;SDS011;64008;55.612;37.698;2023-07-08T00:14:22;7.50;;;4.30;;
75427;SDS011;64008;55.612;37.698;2023-07-08T00:16:47;6.20;;;3.87;;
75427;SDS011;64008;55.612;37.698;2023-07-08T00:19:12;5.95;;;3.70;;
75427;SDS011;64008;55.612;37.698;2023-07-08T00:21:39;7.55;;;4.18;;
75427;SDS011;64008;55.612;37.698;2023-07-08T00:26:30;7.55;;;3.97;;
75427;SDS011;64008;55.612;37.698;2023-07-08T00:28:56;9.90;;;4.38;;
75427;SDS011;64008;55.612;37.698;2023-07-08T00:31:22;7.00;;;4.13;;
75427;SDS011;64008;55.612;37.698;2023-07-08T00:33:55;6.78;;;3.78;;
75427;SDS011;64008;55.612;37.698;2023-07-08T00:36:21;8.27;;;3.63;;
75427;SDS011;64008;55.612;37.698;2023-07-08T00:38:48;8.05;;;3.90;;
75427;SDS011;64008;55.612;37.698;2023-07-08T00:41:36;7.70;;;3.90;;
75427;SDS011;64008;55.612;37.698;2023-07-08T00:44:07;8.48;;;3.88;;
75427;SDS011;64008;55.612;37.698;2023-07-08T00:46:46;6.72;;;3.78;;
75427;SDS011;64008;55.612;37.698;2023-07-08T00:54:44;7.50;;;3.83;;
75427;SDS011;64008;55.612;37.698;2023-07-08T00:57:10;8.10;;;4.40;;
75427;SDS011;64008;55.612;37.698;2023-07-08T00:59:41;7.80;;;4.35;;
75427;SDS011;64008;55.612;37.698;2023-07-08T01:02:11;7.60;;;3.85;;
75427;SDS011;64008;55.612;37.698;2023-07-08T01:04:41;8.10;;;3.97;;
75427;SDS011;64008;55.612;37.698;2023-07-08T01:07:21;7.60;;;3.97;;
75427;SDS011;64008;55.612;37.698;2023-07-08T01:09:52;7.72;;;3.97;;
75427;SDS011;64008;55.612;37.698;2023-07-08T01:12:23;7.63;;;3.92;;
75427;SDS011;64008;55.612;37.698;2023-07-08T01:14:52;6.50;;;4.10;;
75427;SDS011;64008;55.612;37.698;2023-07-08T01:17:21;6.20;;;3.70;;
75427;SDS011;64008;55.612;37.698;2023-07-08T01:19:47;6.65;;;4.07;;
75427;SDS011;64008;55.612;37.698;2023-07-08T01:22:16;7.47;;;3.80;;
75427;SDS011;64008;55.612;37.698;2023-07-08T01:24:42;7.78;;;4.03;;
75427;SDS011;64008;55.612;37.698;2023-07-08T01:27:11;6.32;;;3.67;;
75427;SDS011;64008;55.612;37.698;2023-07-08T01:29:38;6.35;;;3.42;;
75427;SDS011;64008;55.612;37.698;2023-07-08T01:32:04;6.57;;;3.72;;
75427;SDS011;64008;55.612;37.698;2023-07-08T01:34:33;7.22;;;3.85;;
75427;SDS011;64008;55.612;37.698;2023-07-08T01:36:59;7.53;;;3.90;;
75427;SDS011;64008;55.612;37.698;2023-07-08T01:39:28;7.35;;;4.10;;
75427;SDS011;64008;55.612;37.698;2023-07-08T01:41:55;6.70;;;3.97;;
75427;SDS011;64008;55.612;37.698;2023-07-08T01:44:32;7.18;;;3.97;;
75427;SDS011;64008;55.612;37.698;2023-07-08T01:47:02;6.57;;;3.60;;
75427;SDS011;64008;55.612;37.698;2023-07-08T01:49:28;7.90;;;3.88;;
75427;SDS011;64008;55.612;37.698;2023-07-08T01:51:55;7.10;;;3.97;;
75427;SDS011;64008;55.612;37.698;2023-07-08T01:54:21;7.00;;;3.67;;
75427;SDS011;64008;55.612;37.698;2023-07-08T01:56:46;6.68;;;3.58;;
75427;SDS011;64008;55.612;37.698;2023-07-08T01:59:16;7.15;;;3.97;;
75427;SDS011;64008;55.612;37.698;2023-07-08T02:01:42;8.40;;;3.83;;
75427;SDS011;64008;55.612;37.698;2023-07-08T02:04:07;8.02;;;4.47;;
75427;SDS011;64008;55.612;37.698;2023-07-08T02:06:33;7.95;;;4.03;;
75427;SDS011;64008;55.612;37.698;2023-07-08T02:08:58;7.57;;;3.88;;
75427;SDS011;64008;55.612;37.698;2023-07-08T02:11:24;7.00;;;3.45;;
75427;SDS011;64008;55.612;37.698;2023-07-08T02:13:49;6.45;;;3.80;;
75427;SDS011;64008;55.612;37.698;2023-07-08T02:16:15;5.78;;;3.30;;
75427;SDS011;64008;55.612;37.698;2023-07-08T02:18:40;7.85;;;3.65;;
75427;SDS011;64008;55.612;37.698;2023-07-08T02:21:06;6.78;;;3.92;;
75427;SDS011;64008;55.612;37.698;2023-07-08T02:23:31;7.53;;;4.05;;
75427;SDS011;64008;55.612;37.698;2023-07-08T02:25:57;6.93;;;3.70;;
75427;SDS011;64008;55.612;37.698;2023-07-08T02:28:22;6.97;;;3.70;;
75427;SDS011;64008;55.612;37.698;2023-07-08T02:30:48;6.63;;;4.05;;
75427;SDS011;64008;55.612;37.698;2023-07-08T02:33:14;8.25;;;3.85;;
75427;SDS011;64008;55.612;37.698;2023-07-08T02:35:42;7.43;;;3.80;;
75427;SDS011;64008;55.612;37.698;2023-07-08T02:38:07;7.13;;;3.83;;
75427;SDS011;64008;55.612;37.698;2023-07-08T02:40:33;7.25;;;3.83;;
75427;SDS011;64008;55.612;37.698;2023-07-08T02:42:58;7.97;;;3.70;;
75427;SDS011;64008;55.612;37.698;2023-07-08T02:45:24;6.72;;;3.40;;
75427;SDS011;64008;55.612;37.698;2023-07-08T02:47:49;6.35;;;3.67;;
75427;SDS011;64008;55.612;37.698;2023-07-08T02:50:15;6.70;;;3.72;;
75427;SDS011;64008;55.612;37.698;2023-07-08T02:52:42;9.55;;;3.97;;
75427;SDS011;64008;55.612;37.698;2023-07-08T02:55:08;6.85;;;3.70;;
75427;SDS011;64008;55.612;37.698;2023-07-08T02:57:33;6.80;;;3.97;;
75427;SDS011;64008;55.612;37.698;2023-07-08T02:59:59;7.10;;;3.80;;
75427;SDS011;64008;55.612;37.698;2023-07-08T03:02:25;6.70;;;3.72;;
75427;SDS011;64008;55.612;37.698;2023-07-08T03:04:51;6.10;;;3.55;;
75427;SDS011;64008;55.612;37.698;2023-07-08T03:07:19;6.60;;;3.58;;
75427;SDS011;64008;55.612;37.698;2023-07-08T03:09:44;8.57;;;4.03;;
75427;SDS011;64008;55.612;37.698;2023-07-08T03:12:11;7.05;;;3.63;;
75427;SDS011;64008;55.612;37.698;2023-07-08T03:14:37;6.93;;;3.80;;
75427;SDS011;64008;55.612;37.698;2023-07-08T03:17:03;6.10;;;3.45;;
75427;SDS011;64008;55.612;37.698;2023-07-08T03:19:29;6.97;;;3.75;;
75427;SDS011;64008;55.612;37.698;2023-07-08T03:21:55;6.93;;;3.55;;
75427;SDS011;64008;55.612;37.698;2023-07-08T03:24:21;6.45;;;3.63;;
75427;SDS011;64008;55.612;37.698;2023-07-08T03:26:46;7.05;;;4.00;;
75427;SDS011;64008;55.612;37.698;2023-07-08T03:29:15;6.97;;;3.60;;
75427;SDS011;64008;55.612;37.698;2023-07-08T03:31:42;6.72;;;3.67;;
75427;SDS011;64008;55.612;37.698;2023-07-08T03:36:40;6.97;;;3.53;;
75427;SDS011;64008;55.612;37.698;2023-07-08T03:39:13;6.95;;;3.92;;
75427;SDS011;64008;55.612;37.698;2023-07-08T03:41:40;7.50;;;4.05;;
75427;SDS011;64008;55.612;37.698;2023-07-08T03:44:06;6.50;;;3.83;;
75427;SDS011;64008;55.612;37.698;2023-07-08T03:46:31;7.70;;;3.85;;
75427;SDS011;64008;55.612;37.698;2023-07-08T03:48:57;6.50;;;3.63;;
75427;SDS011;64008;55.612;37.698;2023-07-08T03:51:23;8.02;;;4.15;;
75427;SDS011;64008;55.612;37.698;2023-07-08T03:53:52;7.90;;;4.32;;
75427;SDS011;64008;55.612;37.698;2023-07-08T03:56:18;6.97;;;4.03;;
75427;SDS011;64008;55.612;37.698;2023-07-08T03:58:44;7.47;;;4.47;;
75427;SDS011;64008;55.612;37.698;2023-07-08T04:01:16;7.53;;;3.58;;
75427;SDS011;64008;55.612;37.698;2023-07-08T04:03:42;7.13;;;3.67;;
75427;SDS011;64008;55.612;37.698;2023-07-08T04:08:34;7.85;;;3.90;;
75427;SDS011;64008;55.612;37.698;2023-07-08T04:11:00;6.57;;;3.75;;
75427;SDS011;64008;55.612;37.698;2023-07-08T04:13:25;6.53;;;3.90;;
75427;SDS011;64008;55.612;37.698;2023-07-08T04:15:52;7.32;;;4.00;;
75427;SDS011;64008;55.612;37.698;2023-07-08T04:18:20;7.72;;;3.75;;
75427;SDS011;64008;55.612;37.698;2023-07-08T04:20:46;7.43;;;3.83;;
75427;SDS011;64008;55.612;37.698;2023-07-08T04:23:17;6.93;;;4.15;;
75427;SDS011;64008;55.612;37.698;2023-07-08T04:25:43;7.97;;;4.22;;
75427;SDS011;64008;55.612;37.698;2023-07-08T04:28:09;7.28;;;4.07;;
75427;SDS011;64008;55.612;37.698;2023-07-08T04:30:34;9.18;;;4.30;;
75427;SDS011;64008;55.612;37.698;2023-07-08T04:33:05;7.15;;;4.10;;
75427;SDS011;64008;55.612;37.698;2023-07-08T04:35:35;8.55;;;4.60;;
75427;SDS011;64008;55.612;37.698;2023-07-08T04:38:03;7.55;;;4.03;;
75427;SDS011;64008;55.612;37.698;2023-07-08T04:40:39;7.50;;;3.88;;
75427;SDS011;64008;55.612;37.698;2023-07-08T04:43:07;7.80;;;4.10;;
75427;SDS011;64008;55.612;37.698;2023-07-08T04:47:59;7.45;;;3.70;;
75427;SDS011;64008;55.612;37.698;2023-07-08T04:50:25;7.43;;;4.00;;
75427;SDS011;64008;55.612;37.698;2023-07-08T04:52:50;8.27;;;4.10;;
75427;SDS011;64008;55.612;37.698;2023-07-08T04:55:16;6.97;;;3.85;;
75427;SDS011;64008;55.612;37.698;2023-07-08T05:00:09;8.10;;;4.20;;
75427;SDS011;64008;55.612;37.698;2023-07-08T05:02:40;7.35;;;4.10;;
75427;SDS011;64008;55.612;37.698;2023-07-08T05:05:06;7.95;;;4.07;;
75427;SDS011;64008;55.612;37.698;2023-07-08T05:07:32;7.10;;;4.10;;
75427;SDS011;64008;55.612;37.698;2023-07-08T05:09:57;8.35;;;4.25;;
75427;SDS011;64008;55.612;37.698;2023-07-08T05:12:23;8.20;;;4.53;;
75427;SDS011;64008;55.612;37.698;2023-07-08T05:14:48;7.82;;;4.55;;
75427;SDS011;64008;55.612;37.698;2023-07-08T05:17:15;7.00;;;4.20;;
75427;SDS011;64008;55.612;37.698;2023-07-08T05:19:41;7.25;;;4.22;;
75427;SDS011;64008;55.612;37.698;2023-07-08T05:22:08;9.15;;;4.68;;
75427;SDS011;64008;55.612;37.698;2023-07-08T05:24:34;8.82;;;4.30;;
75427;SDS011;64008;55.612;37.698;2023-07-08T05:27:00;8.35;;;4.40;;
75427;SDS011;64008;55.612;37.698;2023-07-08T05:29:25;7.80;;;4.38;;
75427;SDS011;64008;55.612;37.698;2023-07-08T05:31:51;7.10;;;4.15;;
75427;SDS011;64008;55.612;37.698;2023-07-08T05:34:16;11.30;;;4.40;;
75427;SDS011;64008;55.612;37.698;2023-07-08T05:36:42;8.30;;;4.03;;
75427;SDS011;64008;55.612;37.698;2023-07-08T05:39:08;7.68;;;4.30;;
75427;SDS011;64008;55.612;37.698;2023-07-08T05:41:33;7.68;;;4.30;;
75427;SDS011;64008;55.612;37.698;2023-07-08T05:43:59;7.57;;;4.47;;
75427;SDS011;64008;55.612;37.698;2023-07-08T05:46:24;8.80;;;4.32;;
75427;SDS011;64008;55.612;37.698;2023-07-08T05:48:50;8.00;;;4.30;;
75427;SDS011;64008;55.612;37.698;2023-07-08T05:51:16;7.82;;;4.30;;
75427;SDS011;64008;55.612;37.698;2023-07-08T05:53:42;8.75;;;4.43;;
75427;SDS011;64008;55.612;37.698;2023-07-08T05:56:07;7.70;;;4.47;;
75427;SDS011;64008;55.612;37.698;2023-07-08T05:58:33;8.00;;;4.25;;
75427;SDS011;64008;55.612;37.698;2023-07-08T06:00:58;7.18;;;3.92;;
75427;SDS011;64008;55.612;37.698;2023-07-08T06:03:24;7.95;;;4.28;;
75427;SDS011;64008;55.612;37.698;2023-07-08T06:05:50;7.28;;;4.57;;
75427;SDS011;64008;55.612;37.698;2023-07-08T06:08:15;8.70;;;4.38;;
75427;SDS011;64008;55.612;37.698;2023-07-08T06:10:42;7.30;;;4.30;;
75427;SDS011;64008;55.612;37.698;2023-07-08T06:13:09;8.48;;;4.68;;
75427;SDS011;64008;55.612;37.698;2023-07-08T06:15:34;7.72;;;4.18;;
75427;SDS011;64008;55.612;37.698;2023-07-08T06:18:00;7.60;;;3.97;;
75427;SDS011;64008;55.612;37.698;2023-07-08T06:20:27;7.72;;;4.20;;
75427;SDS011;64008;55.612;37.698;2023-07-08T06:22:53;7.38;;;4.25;;
75427;SDS011;64008;55.612;37.698;2023-07-08T06:25:19;7.75;;;3.70;;
75427;SDS011;64008;55.612;37.698;2023-07-08T06:27:45;7.22;;;3.92;;
75427;SDS011;64008;55.612;37.698;2023-07-08T06:30:10;6.35;;;3.75;;
75427;SDS011;64008;55.612;37.698;2023-07-08T06:32:36;9.10;;;4.78;;
75427;SDS011;64008;55.612;37.698;2023-07-08T06:35:02;10.20;;;4.20;;
75427;SDS011;64008;55.612;37.698;2023-07-08T06:37:27;9.25;;;4.28;;
75427;SDS011;64008;55.612;37.698;2023-07-08T06:39:53;8.13;;;4.25;;
75427;SDS011;64008;55.612;37.698;2023-07-08T06:42:18;8.20;;;4.47;;
75427;SDS011;64008;55.612;37.698;2023-07-08T06:44:43;9.48;;;4.45;;
75427;SDS011;64008;55.612;37.698;2023-07-08T06:47:16;8.48;;;4.13;;
75427;SDS011;64008;55.612;37.698;2023-07-08T06:49:43;7.82;;;3.90;;
75427;SDS011;64008;55.612;37.698;2023-07-08T06:52:08;7.32;;;4.18;;
75427;SDS011;64008;55.612;37.698;2023-07-08T06:54:34;8.10;;;3.72;;
75427;SDS011;64008;55.612;37.698;2023-07-08T06:57:00;8.70;;;4.60;;
75427;SDS011;64008;55.612;37.698;2023-07-08T06:59:25;7.95;;;3.58;;
75427;SDS011;64008;55.612;37.698;2023-07-08T07:01:53;6.93;;;3.58;;
75427;SDS011;64008;55.612;37.698;2023-07-08T07:04:19;10.82;;;5.13;;
75427;SDS011;64008;55.612;37.698;2023-07-08T07:06:44;10.38;;;6.07;;
75427;SDS011;64008;55.612;37.698;2023-07-08T07:09:10;8.88;;;5.10;;
75427;SDS011;64008;55.612;37.698;2023-07-08T07:11:35;9.95;;;5.93;;
75427;SDS011;64008;55.612;37.698;2023-07-08T07:14:01;10.02;;;5.32;;
75427;SDS011;64008;55.612;37.698;2023-07-08T07:16:27;10.15;;;5.20;;
75427;SDS011;64008;55.612;37.698;2023-07-08T07:18:53;9.75;;;5.85;;
75427;SDS011;64008;55.612;37.698;2023-07-08T07:21:19;24.83;;;14.48;;
75427;SDS011;64008;55.612;37.698;2023-07-08T07:23:44;10.38;;;6.30;;
75427;SDS011;64008;55.612;37.698;2023-07-08T07:26:10;11.02;;;6.07;;
75427;SDS011;64008;55.612;37.698;2023-07-08T07:28:36;10.00;;;5.65;;
75427;SDS011;64008;55.612;37.698;2023-07-08T07:31:01;10.75;;;5.68;;
75427;SDS011;64008;55.612;37.698;2023-07-08T07:33:28;9.20;;;5.43;;
75427;SDS011;64008;55.612;37.698;2023-07-08T07:35:55;11.43;;;5.78;;
75427;SDS011;64008;55.612;37.698;2023-07-08T07:38:21;9.68;;;5.65;;
75427;SDS011;64008;55.612;37.698;2023-07-08T07:40:46;10.27;;;5.38;;
75427;SDS011;64008;55.612;37.698;2023-07-08T07:43:12;10.75;;;5.60;;
75427;SDS011;64008;55.612;37.698;2023-07-08T07:45:37;9.90;;;6.07;;
75427;SDS011;64008;55.612;37.698;2023-07-08T07:48:03;10.55;;;5.55;;
75427;SDS011;64008;55.612;37.698;2023-07-08T07:50:29;10.18;;;5.55;;
75427;SDS011;64008;55.612;37.698;2023-07-08T07:52:55;10.48;;;6.20;;
75427;SDS011;64008;55.612;37.698;2023-07-08T07:55:21;10.32;;;5.80;;
75427;SDS011;64008;55.612;37.698;2023-07-08T07:57:47;10.55;;;5.85;;
75427;SDS011;64008;55.612;37.698;2023-07-08T08:00:12;12.88;;;6.25;;
75427;SDS011;64008;55.612;37.698;2023-07-08T08:02:39;10.48;;;5.68;;
75427;SDS011;64008;55.612;37.698;2023-07-08T08:05:05;10.57;;;5.55;;
75427;SDS011;64008;55.612;37.698;2023-07-08T08:07:31;11.35;;;6.07;;
75427;SDS011;64008;55.612;37.698;2023-07-08T08:09:56;11.00;;;6.13;;
75427;SDS011;64008;55.612;37.698;2023-07-08T08:12:22;12.00;;;6.28;;
75427;SDS011;64008;55.612;37.698;2023-07-08T08:14:49;10.45;;;6.72;;
75427;SDS011;64008;55.612;37.698;2023-07-08T08:17:16;12.82;;;7.47;;
75427;SDS011;64008;55.612;37.698;2023-07-08T08:19:41;14.88;;;6.30;;
75427;SDS011;64008;55.612;37.698;2023-07-08T08:22:07;23.48;;;6.65;;
75427;SDS011;64008;55.612;37.698;2023-07-08T08:24:33;17.05;;;6.50;;
75427;SDS011;64008;55.612;37.698;2023-07-08T08:26:58;15.57;;;6.10;;
75427;SDS011;64008;55.612;37.698;2023-07-08T08:29:24;15.00;;;6.47;;
75427;SDS011;64008;55.612;37.698;2023-07-08T08:31:50;13.10;;;6.63;;
75427;SDS011;64008;55.612;37.698;2023-07-08T08:34:15;11.13;;;6.25;;
75427;SDS011;64008;55.612;37.698;2023-07-08T08:36:41;13.95;;;5.55;;
75427;SDS011;64008;55.612;37.698;2023-07-08T08:41:34;10.02;;;5.57;;
75427;SDS011;64008;55.612;37.698;2023-07-08T08:44:02;10.52;;;5.68;;
75427;SDS011;64008;55.612;37.698;2023-07-08T08:51:45;10.38;;;5.68;;
75427;SDS011;64008;55.612;37.698;2023-07-08T08:54:12;10.85;;;5.97;;
75427;SDS011;64008;55.612;37.698;2023-07-08T08:59:37;11.18;;;6.80;;
75427;SDS011;64008;55.612;37.698;2023-07-08T09:02:11;9.63;;;6.30;;
75427;SDS011;64008;55.612;37.698;2023-07-08T09:07:23;9.75;;;5.68;;
75427;SDS011;64008;55.612;37.698;2023-07-08T09:12:27;9.32;;;5.38;;
75427;SDS011;64008;55.612;37.698;2023-07-08T09:14:56;10.30;;;5.50;;
75427;SDS011;64008;55.612;37.698;2023-07-08T09:22:38;9.35;;;5.82;;
75427;SDS011;64008;55.612;37.698;2023-07-08T09:27:40;10.40;;;5.80;;
75427;SDS011;64008;55.612;37.698;2023-07-08T09:30:16;11.32;;;5.40;;
75427;SDS011;64008;55.612;37.698;2023-07-08T09:32:43;10.27;;;5.57;;
75427;SDS011;64008;55.612;37.698;2023-07-08T09:35:09;11.07;;;5.78;;
75427;SDS011;64008;55.612;37.698;2023-07-08T09:37:45;11.38;;;6.07;;
75427;SDS011;64008;55.612;37.698;2023-07-08T09:40:16;11.43;;;5.57;;
75427;SDS011;64008;55.612;37.698;2023-07-08T09:42:42;10.43;;;5.82;;
75427;SDS011;64008;55.612;37.698;2023-07-08T09:45:14;10.38;;;6.13;;
75427;SDS011;64008;55.612;37.698;2023-07-08T09:47:42;10.85;;;6.28;;
75427;SDS011;64008;55.612;37.698;2023-07-08T09:50:20;9.93;;;5.40;;
75427;SDS011;64008;55.612;37.698;2023-07-08T09:52:47;9.38;;;5.50;;
75427;SDS011;64008;55.612;37.698;2023-07-08T09:55:14;9.98;;;6.35;;
75427;SDS011;64008;55.612;37.698;2023-07-08T09:57:39;9.63;;;5.93;;
75427;SDS011;64008;55.612;37.698;2023-07-08T10:00:11;8.93;;;5.35;;
75427;SDS011;64008;55.612;37.698;2023-07-08T10:02:41;12.70;;;6.30;;
75427;SDS011;64008;55.612;37.698;2023-07-08T10:05:22;12.57;;;7.70;;
75427;SDS011;64008;55.612;37.698;2023-07-08T10:07:58;13.25;;;6.18;;
75427;SDS011;64008;55.612;37.698;2023-07-08T10:10:29;9.73;;;5.40;;
75427;SDS011;64008;55.612;37.698;2023-07-08T10:13:04;9.48;;;4.90;;
75427;SDS011;64008;55.612;37.698;2023-07-08T10:15:41;8.40;;;5.03;;
75427;SDS011;64008;55.612;37.698;2023-07-08T10:18:15;10.20;;;5.35;;
75427;SDS011;64008;55.612;37.698;2023-07-08T10:28:57;7.35;;;4.63;;
75427;SDS011;64008;55.612;37.698;2023-07-08T10:31:33;7.50;;;4.45;;
75427;SDS011;64008;55.612;37.698;2023-07-08T10:36:54;9.90;;;5.28;;
75427;SDS011;64008;55.612;37.698;2023-07-08T10:56:14;9.20;;;5.05;;
75427;SDS011;64008;55.612;37.698;2023-07-08T10:58:48;8.48;;;5.25;;
75427;SDS011;64008;55.612;37.698;2023-07-08T11:01:21;7.82;;;4.38;;
75427;SDS011;64008;55.612;37.698;2023-07-08T11:04:01;6.93;;;4.20;;
75427;SDS011;64008;55.612;37.698;2023-07-08T11:06:54;8.70;;;4.07;;
75427;SDS011;64008;55.612;37.698;2023-07-08T11:09:29;6.88;;;4.10;;
75427;SDS011;64008;55.612;37.698;2023-07-08T11:12:00;7.22;;;4.05;;
75427;SDS011;64008;55.612;37.698;2023-07-08T11:17:38;6.80;;;3.85;;
75427;SDS011;64008;55.612;37.698;2023-07-08T11:20:21;7.70;;;4.03;;
75427;SDS011;64008;55.612;37.698;2023-07-08T11:23:25;8.70;;;4.07;;
75427;SDS011;64008;55.612;37.698;2023-07-08T11:28:46;6.75;;;3.70;;
75427;SDS011;64008;55.612;37.698;2023-07-08T11:31:14;6.53;;;3.08;;
75427;SDS011;64008;55.612;37.698;2023-07-08T11:33:41;5.45;;;3.10;;
75427;SDS011;64008;55.612;37.698;2023-07-08T11:36:07;5.82;;;3.22;;
75427;SDS011;64008;55.612;37.698;2023-07-08T11:38:34;7.72;;;3.60;;
75427;SDS011;64008;55.612;37.698;2023-07-08T11:41:01;6.10;;;3.15;;
75427;SDS011;64008;55.612;37.698;2023-07-08T11:43:49;5.80;;;2.70;;
75427;SDS011;64008;55.612;37.698;2023-07-08T11:46:22;6.15;;;3.22;;
75427;SDS011;64008;55.612;37.698;2023-07-08T11:51:24;6.25;;;3.25;;
75427;SDS011;64008;55.612;37.698;2023-07-08T11:54:01;7.32;;;3.22;;
75427;SDS011;64008;55.612;37.698;2023-07-08T11:56:48;7.47;;;3.45;;
75427;SDS011;64008;55.612;37.698;2023-07-08T11:59:26;6.45;;;3.35;;
75427;SDS011;64008;55.612;37.698;2023-07-08T12:04:29;7.45;;;2.95;;
75427;SDS011;64008;55.612;37.698;2023-07-08T12:09:36;4.97;;;2.65;;
75427;SDS011;64008;55.612;37.698;2023-07-08T12:12:09;6.28;;;3.03;;
75427;SDS011;64008;55.612;37.698;2023-07-08T12:14:43;6.15;;;2.83;;
75427;SDS011;64008;55.612;37.698;2023-07-08T12:17:13;6.30;;;2.88;;
75427;SDS011;64008;55.612;37.698;2023-07-08T12:19:40;6.00;;;3.25;;
75427;SDS011;64008;55.612;37.698;2023-07-08T12:22:09;5.55;;;2.88;;
75427;SDS011;64008;55.612;37.698;2023-07-08T12:24:37;5.75;;;3.20;;
75427;SDS011;64008;55.612;37.698;2023-07-08T12:29:28;5.25;;;2.53;;
75427;SDS011;64008;55.612;37.698;2023-07-08T12:31:54;7.22;;;4.05;;
75427;SDS011;64008;55.612;37.698;2023-07-08T12:34:19;8.02;;;3.72;;
75427;SDS011;64008;55.612;37.698;2023-07-08T12:36:48;6.63;;;3.38;;
75427;SDS011;64008;55.612;37.698;2023-07-08T12:39:15;7.22;;;4.00;;
75427;SDS011;64008;55.612;37.698;2023-07-08T12:41:42;8.35;;;4.32;;
75427;SDS011;64008;55.612;37.698;2023-07-08T12:44:20;7.50;;;3.78;;
75427;SDS011;64008;55.612;37.698;2023-07-08T12:46:48;5.97;;;3.65;;
75427;SDS011;64008;55.612;37.698;2023-07-08T12:49:17;6.75;;;3.38;;
75427;SDS011;64008;55.612;37.698;2023-07-08T12:51:45;6.15;;;3.10;;
75427;SDS011;64008;55.612;37.698;2023-07-08T12:54:11;7.70;;;3.60;;
75427;SDS011;64008;55.612;37.698;2023-07-08T12:56:38;6.00;;;3.20;;
75427;SDS011;64008;55.612;37.698;2023-07-08T12:59:07;9.40;;;3.25;;
75427;SDS011;64008;55.612;37.698;2023-07-08T13:01:34;7.20;;;3.50;;
75427;SDS011;64008;55.612;37.698;2023-07-08T13:04:05;10.50;;;3.50;;
75427;SDS011;64008;55.612;37.698;2023-07-08T13:06:34;5.25;;;2.80;;
75427;SDS011;64008;55.612;37.698;2023-07-08T13:09:17;6.15;;;2.70;;
75427;SDS011;64008;55.612;37.698;2023-07-08T13:11:55;5.80;;;2.90;;
75427;SDS011;64008;55.612;37.698;2023-07-08T13:14:22;6.80;;;2.40;;
75427;SDS011;64008;55.612;37.698;2023-07-08T13:16:49;5.50;;;2.63;;
75427;SDS011;64008;55.612;37.698;2023-07-08T13:19:15;5.88;;;2.97;;
75427;SDS011;64008;55.612;37.698;2023-07-08T13:21:41;5.18;;;2.42;;
75427;SDS011;64008;55.612;37.698;2023-07-08T13:24:10;4.38;;;2.35;;
75427;SDS011;64008;55.612;37.698;2023-07-08T13:26:38;4.53;;;2.20;;
75427;SDS011;64008;55.612;37.698;2023-07-08T13:29:06;5.18;;;2.20;;
75427;SDS011;64008;55.612;37.698;2023-07-08T13:31:38;4.10;;;2.17;;
75427;SDS011;64008;55.612;37.698;2023-07-08T13:34:06;6.95;;;2.60;;
75427;SDS011;64008;55.612;37.698;2023-07-08T13:36:35;24.30;;;13.70;;
75427;SDS011;64008;55.612;37.698;2023-07-08T13:39:05;7.32;;;3.72;;
75427;SDS011;64008;55.612;37.698;2023-07-08T13:41:33;9.43;;;5.72;;
75427;SDS011;64008;55.612;37.698;2023-07-08T13:44:06;6.90;;;3.35;;
75427;SDS011;64008;55.612;37.698;2023-07-08T13:51:49;6.28;;;3.22;;
75427;SDS011;64008;55.612;37.698;2023-07-08T13:54:19;9.75;;;3.30;;
75427;SDS011;64008;55.612;37.698;2023-07-08T13:56:46;5.68;;;2.92;;
75427;SDS011;64008;55.612;37.698;2023-07-08T13:59:16;6.07;;;3.28;;
75427;SDS011;64008;55.612;37.698;2023-07-08T14:01:46;7.82;;;3.25;;
75427;SDS011;64008;55.612;37.698;2023-07-08T14:04:16;6.55;;;3.05;;
75427;SDS011;64008;55.612;37.698;2023-07-08T14:06:44;5.75;;;2.88;;
75427;SDS011;64008;55.612;37.698;2023-07-08T14:09:12;7.45;;;3.17;;
75427;SDS011;64008;55.612;37.698;2023-07-08T14:11:39;8.52;;;3.22;;
75427;SDS011;64008;55.612;37.698;2023-07-08T14:14:05;6.82;;;3.05;;
75427;SDS011;64008;55.612;37.698;2023-07-08T14:16:31;6.75;;;3.03;;
75427;SDS011;64008;55.612;37.698;2023-07-08T14:19:00;6.88;;;2.83;;
75427;SDS011;64008;55.612;37.698;2023-07-08T14:21:29;5.78;;;2.92;;
75427;SDS011;64008;55.612;37.698;2023-07-08T14:23:55;6.22;;;2.72;;
75427;SDS011;64008;55.612;37.698;2023-07-08T14:26:20;8.13;;;3.45;;
75427;SDS011;64008;55.612;37.698;2023-07-08T14:28:46;6.35;;;2.80;;
75427;SDS011;64008;55.612;37.698;2023-07-08T14:31:12;7.47;;;2.92;;
75427;SDS011;64008;55.612;37.698;2023-07-08T14:33:46;7.63;;;3.20;;
75427;SDS011;64008;55.612;37.698;2023-07-08T14:36:12;7.30;;;3.75;;
75427;SDS011;64008;55.612;37.698;2023-07-08T14:38:39;7.13;;;3.05;;
75427;SDS011;64008;55.612;37.698;2023-07-08T14:41:05;7.90;;;3.72;;
75427;SDS011;64008;55.612;37.698;2023-07-08T14:43:31;6.35;;;3.55;;
75427;SDS011;64008;55.612;37.698;2023-07-08T14:45:59;6.35;;;3.25;;
75427;SDS011;64008;55.612;37.698;2023-07-08T14:48:29;8.80;;;3.60;;
75427;SDS011;64008;55.612;37.698;2023-07-08T14:50:56;6.55;;;3.38;;
75427;SDS011;64008;55.612;37.698;2023-07-08T14:53:21;6.03;;;3.03;;
75427;SDS011;64008;55.612;37.698;2023-07-08T14:55:47;5.07;;;2.65;;
75427;SDS011;64008;55.612;37.698;2023-07-08T14:58:25;6.18;;;3.10;;
75427;SDS011;64008;55.612;37.698;2023-07-08T15:00:55;6.63;;;2.83;;
75427;SDS011;64008;55.612;37.698;2023-07-08T15:03:25;5.60;;;2.67;;
75427;SDS011;64008;55.612;37.698;2023-07-08T15:05:52;6.47;;;3.05;;
75427;SDS011;64008;55.612;37.698;2023-07-08T15:08:18;8.90;;;2.78;;
75427;SDS011;64008;55.612;37.698;2023-07-08T15:10:45;8.90;;;3.17;;
75427;SDS011;64008;55.612;37.698;2023-07-08T15:13:13;6.15;;;2.55;;
75427;SDS011;64008;55.612;37.698;2023-07-08T15:15:39;7.15;;;2.65;;
75427;SDS011;64008;55.612;37.698;2023-07-08T15:18:10;5.45;;;2.63;;
75427;SDS011;64008;55.612;37.698;2023-07-08T15:20:37;5.97;;;2.67;;
75427;SDS011;64008;55.612;37.698;2023-07-08T15:23:03;7.40;;;3.97;;
75427;SDS011;64008;55.612;37.698;2023-07-08T15:25:29;5.35;;;2.75;;
75427;SDS011;64008;55.612;37.698;2023-07-08T15:27:56;5.95;;;2.92;;
75427;SDS011;64008;55.612;37.698;2023-07-08T15:30:26;4.90;;;2.50;;
75427;SDS011;64008;55.612;37.698;2023-07-08T15:32:52;4.75;;;2.42;;
75427;SDS011;64008;55.612;37.698;2023-07-08T15:37:57;6.97;;;3.63;;
75427;SDS011;64008;55.612;37.698;2023-07-08T15:40:24;9.32;;;5.32;;
75427;SDS011;64008;55.612;37.698;2023-07-08T15:42:54;6.68;;;3.85;;
75427;SDS011;64008;55.612;37.698;2023-07-08T15:47:59;6.40;;;2.85;;
75427;SDS011;64008;55.612;37.698;2023-07-08T15:50:25;6.30;;;3.38;;
75427;SDS011;64008;55.612;37.698;2023-07-08T15:52:52;6.55;;;3.08;;
75427;SDS011;64008;55.612;37.698;2023-07-08T15:55:31;6.15;;;2.78;;
75427;SDS011;64008;55.612;37.698;2023-07-08T15:58:09;7.38;;;4.10;;
75427;SDS011;64008;55.612;37.698;2023-07-08T16:00:49;5.82;;;2.70;;
75427;SDS011;64008;55.612;37.698;2023-07-08T16:03:19;5.30;;;2.60;;
75427;SDS011;64008;55.612;37.698;2023-07-08T16:05:56;5.85;;;2.78;;
75427;SDS011;64008;55.612;37.698;2023-07-08T16:08:23;5.80;;;2.75;;
75427;SDS011;64008;55.612;37.698;2023-07-08T16:10:52;5.18;;;2.50;;
75427;SDS011;64008;55.612;37.698;2023-07-08T16:13:23;6.78;;;3.88;;
75427;SDS011;64008;55.612;37.698;2023-07-08T16:15:52;7.55;;;2.90;;